createdAt,value
2024-02-21T00:00:07.471Z,7.94
2024-02-21T00:02:36.791Z,7.83
2024-02-21T00:05:10.438Z,7.88
2024-02-21T00:07:40.356Z,7.90
2024-02-21T00:10:11.404Z,7.77
2024-02-21T00:12:48.154Z,7.90
2024-02-21T00:15:19.894Z,7.92
2024-02-21T00:17:50.353Z,7.96
2024-02-21T00:20:22.517Z,8.02
2024-02-21T00:22:53.121Z,7.90
2024-02-21T00:25:23.626Z,8.04
2024-02-21T00:27:55.147Z,8.03
2024-02-21T00:30:27.458Z,8.08
2024-02-21T00:32:56.881Z,8.02
2024-02-21T00:35:29.109Z,8.14
2024-02-21T00:38:01.218Z,8.00
2024-02-21T00:40:31.207Z,8.13
2024-02-21T00:43:05.179Z,8.15
2024-02-21T00:45:34.315Z,8.16
2024-02-21T00:48:06.681Z,8.14
2024-02-21T00:50:38.940Z,8.10
2024-02-21T00:53:11.282Z,8.08
2024-02-21T00:55:43.930Z,8.00
2024-02-21T00:58:14.325Z,7.91
2024-02-21T01:00:49.486Z,7.91
2024-02-21T01:03:18.801Z,7.90
2024-02-21T01:05:52.148Z,7.93
2024-02-21T01:08:21.340Z,7.94
2024-02-21T01:10:53.743Z,7.92
2024-02-21T01:13:25.279Z,7.95
2024-02-21T01:15:57.482Z,7.88
2024-02-21T01:18:27.735Z,7.81
2024-02-21T01:21:01.616Z,7.77
2024-02-21T01:23:32.972Z,7.75
2024-02-21T01:26:03.072Z,7.75
2024-02-21T01:28:32.991Z,7.63
2024-02-21T01:31:05.013Z,7.65
2024-02-21T01:33:36.804Z,7.68
2024-02-21T01:36:11.977Z,7.92
2024-02-21T01:38:41.560Z,7.95
2024-02-21T01:41:12.199Z,7.89
2024-02-21T01:43:41.074Z,7.94
2024-02-21T01:46:13.543Z,7.86
2024-02-21T01:48:42.935Z,7.78
2024-02-21T01:51:16.570Z,7.84
2024-02-21T01:53:48.003Z,7.90
2024-02-21T01:56:16.947Z,7.91
2024-02-21T01:58:47.821Z,7.97
2024-02-21T02:01:21.754Z,7.98
2024-02-21T02:03:54.254Z,7.97
2024-02-21T02:06:25.255Z,7.90
2024-02-21T02:08:54.793Z,7.92
2024-02-21T02:11:23.978Z,7.95
2024-02-21T02:13:55.096Z,7.91
2024-02-21T02:16:24.201Z,7.88
2024-02-21T02:18:53.962Z,7.84
2024-02-21T02:21:33.759Z,7.92
2024-02-21T02:24:06.053Z,7.90
2024-02-21T02:26:35.145Z,7.90
2024-02-21T02:29:04.502Z,7.91
2024-02-21T02:31:36.059Z,7.92
2024-02-21T02:34:05.493Z,7.81
2024-02-21T02:36:35.678Z,7.88
2024-02-21T02:39:06.513Z,7.75
2024-02-21T02:41:37.879Z,7.75
2024-02-21T02:44:07.645Z,7.70
2024-02-21T02:46:36.623Z,7.75
2024-02-21T02:49:08.689Z,7.73
2024-02-21T02:51:39.232Z,7.68
2024-02-21T02:54:10.451Z,7.50
2024-02-21T02:56:42.569Z,7.57
2024-02-21T02:59:14.932Z,7.58
2024-02-21T03:01:47.219Z,7.54
2024-02-21T03:04:17.892Z,7.76
2024-02-21T03:06:49.853Z,7.78
2024-02-21T03:09:20.109Z,7.80
2024-02-21T03:11:49.291Z,7.74
2024-02-21T03:14:20.372Z,7.69
2024-02-21T03:16:50.196Z,7.71
2024-02-21T03:19:20.016Z,7.69
2024-02-21T03:21:50.728Z,7.71
2024-02-21T03:24:26.604Z,7.68
2024-02-21T03:26:56.241Z,7.63
2024-02-21T03:29:28.404Z,7.66
2024-02-21T03:32:10.920Z,7.73
2024-02-21T03:34:41.280Z,7.59
2024-02-21T03:37:10.525Z,7.56
2024-02-21T03:39:44.311Z,7.61
2024-02-21T03:42:14.817Z,7.58
2024-02-21T03:44:45.183Z,7.68
2024-02-21T03:47:15.730Z,7.70
2024-02-21T03:49:46.284Z,7.59
2024-02-21T03:52:15.703Z,7.57
2024-02-21T03:54:46.579Z,7.65
2024-02-21T03:57:18.045Z,7.58
2024-02-21T03:59:50.639Z,7.71
2024-02-21T04:02:22.411Z,7.81
2024-02-21T04:04:51.407Z,7.78
2024-02-21T04:07:24.344Z,7.70
2024-02-21T04:09:57.161Z,7.81
2024-02-21T04:12:28.105Z,7.81
2024-02-21T04:14:59.271Z,7.98
2024-02-21T04:17:29.244Z,7.97
2024-02-21T04:20:06.953Z,8.01
2024-02-21T04:22:39.496Z,7.92
2024-02-21T04:25:22.781Z,7.54
2024-02-21T04:27:52.588Z,7.63
2024-02-21T04:30:22.491Z,7.49
2024-02-21T04:32:51.777Z,7.49
2024-02-21T04:35:23.529Z,7.44
2024-02-21T04:37:53.126Z,7.42
2024-02-21T04:40:25.664Z,7.31
2024-02-21T04:42:59.652Z,7.32
2024-02-21T04:45:29.762Z,7.29
2024-02-21T04:48:06.040Z,7.31
2024-02-21T04:50:37.299Z,7.31
2024-02-21T04:53:06.391Z,7.39
2024-02-21T04:55:37.553Z,7.31
2024-02-21T04:58:06.408Z,7.27
2024-02-21T05:00:35.991Z,7.28
2024-02-21T05:03:06.411Z,7.53
2024-02-21T05:05:35.729Z,7.53
2024-02-21T05:08:05.139Z,7.45
2024-02-21T05:10:35.286Z,7.39
2024-02-21T05:13:06.081Z,7.33
2024-02-21T05:15:35.633Z,7.37
2024-02-21T05:18:06.334Z,7.37
2024-02-21T05:20:37.110Z,7.38
2024-02-21T05:23:07.253Z,7.27
2024-02-21T05:25:38.980Z,7.21
2024-02-21T05:28:12.462Z,7.25
2024-02-21T05:30:42.608Z,7.22
2024-02-21T05:33:11.629Z,7.22
2024-02-21T05:35:41.704Z,7.24
2024-02-21T05:38:13.264Z,7.46
2024-02-21T05:40:43.587Z,7.40
2024-02-21T05:43:15.832Z,7.38
2024-02-21T05:45:46.845Z,7.26
2024-02-21T05:48:16.403Z,7.20
2024-02-21T05:50:47.136Z,7.29
2024-02-21T05:53:16.549Z,7.23
2024-02-21T05:55:45.822Z,7.27
2024-02-21T05:58:17.752Z,7.28
2024-02-21T06:00:46.797Z,7.11
2024-02-21T06:03:18.936Z,7.17
2024-02-21T06:05:50.878Z,7.12
2024-02-21T06:08:20.372Z,7.08
2024-02-21T06:10:55.305Z,6.88
2024-02-21T06:13:26.445Z,6.76
2024-02-21T06:15:55.852Z,6.73
2024-02-21T06:18:26.522Z,6.72
2024-02-21T06:20:57.886Z,6.72
2024-02-21T06:23:29.691Z,6.71
2024-02-21T06:25:59.199Z,6.69
2024-02-21T06:28:30.614Z,6.61
2024-02-21T06:31:00.443Z,6.52
2024-02-21T06:33:33.469Z,6.46
2024-02-21T06:36:20.175Z,6.55
2024-02-21T06:38:59.468Z,6.65
2024-02-21T06:41:29.028Z,6.74
2024-02-21T06:44:00.008Z,6.82
2024-02-21T06:46:37.238Z,6.96
2024-02-21T06:49:10.013Z,6.75
2024-02-21T06:51:42.082Z,6.74
2024-02-21T06:54:14.296Z,6.69
2024-02-21T06:56:46.047Z,6.72
2024-02-21T06:59:19.060Z,6.73
2024-02-21T07:01:53.325Z,6.74
2024-02-21T07:04:25.133Z,6.76
2024-02-21T07:06:57.678Z,6.83
2024-02-21T07:09:36.484Z,6.87
2024-02-21T07:12:06.368Z,6.83
2024-02-21T07:14:38.170Z,6.90
2024-02-21T07:17:07.473Z,6.91
2024-02-21T07:19:37.656Z,7.00
2024-02-21T07:22:14.346Z,7.04
2024-02-21T07:24:48.177Z,7.25
2024-02-21T07:27:32.193Z,7.41
2024-02-21T07:30:09.290Z,7.41
2024-02-21T07:32:40.008Z,7.43
2024-02-21T07:35:12.037Z,7.65
2024-02-21T07:37:41.869Z,7.72
2024-02-21T07:40:16.948Z,7.77
2024-02-21T07:42:51.527Z,7.90
2024-02-21T07:45:27.958Z,7.85
2024-02-21T07:47:59.072Z,7.91
2024-02-21T07:50:30.703Z,8.10
2024-02-21T07:53:00.525Z,8.35
2024-02-21T07:55:32.470Z,8.32
2024-02-21T07:58:04.732Z,8.41
2024-02-21T08:00:35.514Z,7.99
2024-02-21T08:03:06.175Z,8.31
2024-02-21T08:05:37.065Z,8.51
2024-02-21T08:08:08.682Z,8.59
2024-02-21T08:10:38.644Z,8.69
2024-02-21T08:13:08.624Z,8.77
2024-02-21T08:15:42.692Z,8.63
2024-02-21T08:18:12.622Z,8.73
2024-02-21T08:20:44.176Z,8.82
2024-02-21T08:23:15.258Z,8.77
2024-02-21T08:25:51.872Z,8.74
2024-02-21T08:28:24.261Z,8.79
2024-02-21T08:30:55.863Z,9.00
2024-02-21T08:33:26.834Z,8.69
2024-02-21T08:35:56.895Z,8.51
2024-02-21T08:38:26.865Z,8.50
2024-02-21T08:40:56.599Z,8.67
2024-02-21T08:43:29.878Z,8.81
2024-02-21T08:46:03.930Z,9.05
2024-02-21T08:48:35.616Z,9.50
2024-02-21T08:51:07.397Z,10.50
2024-02-21T08:53:36.736Z,10.24
2024-02-21T08:56:07.296Z,10.34
2024-02-21T08:58:39.406Z,11.56
2024-02-21T09:01:14.441Z,11.33
2024-02-21T09:03:45.693Z,10.91
2024-02-21T09:06:18.244Z,11.12
2024-02-21T09:08:47.326Z,11.59
2024-02-21T09:11:17.697Z,11.64
2024-02-21T09:13:47.976Z,11.51
2024-02-21T09:16:21.372Z,11.69
2024-02-21T09:18:51.706Z,12.78
2024-02-21T09:21:25.384Z,12.43
2024-02-21T09:24:00.151Z,11.66
2024-02-21T09:26:32.372Z,10.86
2024-02-21T09:29:05.696Z,10.40
2024-02-21T09:31:36.234Z,10.05
2024-02-21T09:34:06.386Z,9.79
2024-02-21T09:36:38.478Z,9.65
2024-02-21T09:39:08.850Z,9.78
2024-02-21T09:41:46.825Z,9.86
2024-02-21T09:44:20.560Z,9.92
2024-02-21T09:46:58.481Z,10.17
2024-02-21T09:49:34.011Z,10.49
2024-02-21T09:52:06.228Z,10.93
2024-02-21T09:54:36.757Z,11.15
2024-02-21T09:57:06.985Z,10.66
2024-02-21T09:59:37.177Z,10.59
2024-02-21T10:02:08.888Z,10.51
2024-02-21T10:04:40.060Z,10.72
2024-02-21T10:07:10.558Z,11.03
2024-02-21T10:09:44.859Z,11.84
2024-02-21T10:12:15.103Z,12.59
2024-02-21T10:14:44.922Z,12.17
2024-02-21T10:17:20.568Z,12.75
2024-02-21T10:19:51.660Z,12.49
2024-02-21T10:22:22.514Z,12.71
2024-02-21T10:24:52.856Z,12.69
2024-02-21T10:27:28.312Z,11.81
2024-02-21T10:29:58.753Z,12.03
2024-02-21T10:32:31.968Z,12.67
2024-02-21T10:35:07.235Z,12.70
2024-02-21T10:37:37.641Z,12.06
2024-02-21T10:40:09.165Z,12.87
2024-02-21T10:42:41.311Z,12.70
2024-02-21T10:45:13.714Z,12.55
2024-02-21T10:47:53.996Z,12.31
2024-02-21T10:50:27.648Z,11.99
2024-02-21T10:53:11.079Z,11.67
2024-02-21T10:55:44.203Z,11.63
2024-02-21T10:58:16.887Z,12.19
2024-02-21T11:00:47.205Z,12.36
2024-02-21T11:03:18.486Z,12.58
2024-02-21T11:05:51.605Z,11.90
2024-02-21T11:08:30.870Z,11.92
2024-02-21T11:11:04.666Z,12.39
2024-02-21T11:13:39.989Z,12.93
2024-02-21T11:16:11.716Z,13.30
2024-02-21T11:18:42.763Z,13.74
2024-02-21T11:21:13.265Z,14.24
2024-02-21T11:23:43.483Z,14.63
2024-02-21T11:26:22.966Z,14.41
2024-02-21T11:29:02.871Z,14.85
2024-02-21T11:31:44.812Z,15.86
2024-02-21T11:34:20.076Z,15.63
2024-02-21T11:36:53.273Z,15.16
2024-02-21T11:39:25.943Z,16.14
2024-02-21T11:42:09.106Z,15.49
2024-02-21T11:44:41.059Z,16.42
2024-02-21T11:47:12.948Z,16.81
2024-02-21T11:49:50.785Z,16.85
2024-02-21T11:52:24.383Z,16.90
2024-02-21T11:54:59.198Z,16.98
2024-02-21T11:57:29.013Z,16.83
2024-02-21T12:00:03.296Z,15.49
2024-02-21T12:02:39.146Z,14.89
2024-02-21T12:05:12.123Z,14.39
2024-02-21T12:07:42.426Z,14.15
2024-02-21T12:10:14.207Z,15.23
2024-02-21T12:12:46.495Z,16.12
2024-02-21T12:15:16.734Z,16.04
2024-02-21T12:17:46.736Z,16.08
2024-02-21T12:20:17.666Z,16.09
2024-02-21T12:22:47.017Z,15.27
2024-02-21T12:25:20.742Z,15.01
2024-02-21T12:27:52.016Z,14.89
2024-02-21T12:30:22.672Z,15.45
2024-02-21T12:32:54.014Z,15.10
2024-02-21T12:35:26.013Z,14.37
2024-02-21T12:37:58.653Z,15.12
2024-02-21T12:40:27.895Z,15.36
2024-02-21T12:42:58.066Z,14.57
2024-02-21T12:45:32.214Z,15.14
2024-02-21T12:48:03.170Z,14.48
2024-02-21T12:50:40.081Z,14.71
2024-02-21T12:53:19.613Z,14.35
2024-02-21T12:55:53.034Z,14.48
2024-02-21T12:58:24.567Z,14.31
2024-02-21T13:00:55.657Z,14.83
2024-02-21T13:03:33.160Z,14.79
2024-02-21T13:06:04.674Z,14.58
2024-02-21T13:08:35.717Z,14.45
2024-02-21T13:11:10.795Z,14.23
2024-02-21T13:13:45.445Z,14.26
2024-02-21T13:16:15.588Z,13.65
2024-02-21T13:18:46.421Z,13.49
2024-02-21T13:21:20.753Z,14.05
2024-02-21T13:23:52.026Z,14.71
2024-02-21T13:26:27.774Z,14.80
2024-02-21T13:28:58.475Z,14.41
2024-02-21T13:31:27.973Z,14.61
2024-02-21T13:34:02.589Z,14.18
2024-02-21T13:36:38.667Z,13.62
2024-02-21T13:39:08.400Z,13.50
2024-02-21T13:41:37.567Z,14.07
2024-02-21T13:44:08.241Z,14.00
2024-02-21T13:46:38.186Z,13.71
2024-02-21T13:49:09.980Z,13.23
2024-02-21T13:51:45.814Z,13.15
2024-02-21T13:54:18.284Z,13.00
2024-02-21T13:56:48.818Z,12.88
2024-02-21T13:59:19.451Z,13.05
2024-02-21T14:01:50.833Z,13.13
2024-02-21T14:04:20.084Z,13.42
2024-02-21T14:06:54.713Z,13.76
2024-02-21T14:09:30.977Z,13.61
2024-02-21T14:12:01.848Z,13.46
2024-02-21T14:14:31.248Z,12.88
2024-02-21T14:17:01.739Z,13.10
2024-02-21T14:19:32.855Z,12.99
2024-02-21T14:22:04.976Z,13.39
2024-02-21T14:24:36.638Z,13.17
2024-02-21T14:27:07.359Z,13.11
2024-02-21T14:29:44.899Z,13.19
2024-02-21T14:32:16.770Z,13.20
2024-02-21T14:34:51.541Z,13.20
2024-02-21T14:37:28.709Z,13.34
2024-02-21T14:39:59.702Z,13.18
2024-02-21T14:42:32.357Z,13.08
2024-02-21T14:45:07.231Z,13.05
2024-02-21T14:47:38.736Z,12.98
2024-02-21T14:50:13.111Z,12.95
2024-02-21T14:52:46.952Z,12.85
2024-02-21T14:55:19.714Z,12.83
2024-02-21T14:57:52.227Z,12.96
2024-02-21T15:00:29.420Z,12.77
2024-02-21T15:02:59.945Z,12.76
2024-02-21T15:05:34.034Z,12.77
2024-02-21T15:08:09.895Z,12.73
2024-02-21T15:10:39.442Z,12.62
2024-02-21T15:13:08.362Z,12.65
2024-02-21T15:15:37.815Z,12.52
2024-02-21T15:18:07.660Z,12.46
2024-02-21T15:20:38.286Z,12.33
2024-02-21T15:23:11.379Z,12.35
2024-02-21T15:25:41.888Z,12.43
2024-02-21T15:28:11.716Z,12.62
2024-02-21T15:30:41.502Z,12.64
2024-02-21T15:33:13.378Z,12.65
2024-02-21T15:35:45.285Z,12.53
2024-02-21T15:38:17.758Z,12.59
2024-02-21T15:40:48.140Z,12.61
2024-02-21T15:43:21.812Z,12.48
2024-02-21T15:45:53.332Z,12.56
2024-02-21T15:48:26.325Z,12.53
2024-02-21T15:50:56.974Z,12.48
2024-02-21T15:53:31.741Z,12.46
2024-02-21T15:56:04.715Z,12.47
2024-02-21T15:58:39.611Z,12.39
2024-02-21T16:01:12.777Z,12.34
2024-02-21T16:03:46.335Z,12.25
2024-02-21T16:06:18.507Z,12.22
2024-02-21T16:08:53.617Z,12.21
2024-02-21T16:11:28.791Z,12.20
2024-02-21T16:14:09.118Z,12.17
2024-02-21T16:16:42.561Z,12.09
2024-02-21T16:19:18.359Z,12.11
2024-02-21T16:21:49.975Z,12.05
2024-02-21T16:24:28.767Z,12.03
2024-02-21T16:27:05.041Z,12.08
2024-02-21T16:29:37.944Z,11.99
2024-02-21T16:32:10.713Z,11.96
2024-02-21T16:34:49.153Z,11.81
2024-02-21T16:37:19.751Z,11.69
2024-02-21T16:39:50.926Z,11.68
2024-02-21T16:42:29.318Z,11.61
2024-02-21T16:44:58.754Z,11.55
2024-02-21T16:47:30.338Z,11.55
2024-02-21T16:50:05.668Z,11.52
2024-02-21T16:52:35.957Z,11.45
2024-02-21T16:58:26.657Z,11.48
2024-02-21T17:01:10.412Z,11.23
2024-02-21T17:03:43.440Z,11.13
2024-02-21T17:06:17.847Z,10.99
2024-02-21T17:08:48.340Z,10.98
2024-02-21T17:11:19.301Z,10.98
2024-02-21T17:13:52.568Z,11.11
2024-02-21T17:16:26.856Z,11.18
2024-02-21T17:18:56.049Z,11.19
2024-02-21T17:21:25.011Z,11.29
2024-02-21T17:23:54.181Z,11.22
2024-02-21T17:26:27.488Z,11.23
2024-02-21T17:28:56.390Z,11.18
2024-02-21T17:31:29.357Z,11.13
2024-02-21T17:34:01.151Z,10.97
2024-02-21T17:36:30.177Z,10.99
2024-02-21T17:39:01.132Z,10.92
2024-02-21T17:41:31.669Z,10.90
2024-02-21T17:46:53.179Z,10.87
2024-02-21T17:49:22.400Z,10.84
2024-02-21T17:51:55.322Z,10.85
2024-02-21T17:54:24.476Z,10.85
2024-02-21T17:57:00.674Z,10.82
2024-02-21T17:59:33.300Z,10.81
2024-02-21T18:02:03.579Z,10.82
2024-02-21T18:04:32.510Z,10.83
2024-02-21T18:07:04.193Z,10.78
2024-02-21T18:09:35.523Z,10.81
2024-02-21T18:12:12.484Z,10.71
2024-02-21T18:14:42.794Z,10.67
2024-02-21T18:17:28.588Z,10.71
2024-02-21T18:20:11.979Z,10.66
2024-02-21T18:22:42.917Z,10.59
2024-02-21T18:25:14.127Z,10.60
2024-02-21T18:28:30.467Z,10.59
2024-02-21T18:31:07.801Z,10.48
2024-02-21T18:33:36.717Z,10.48
2024-02-21T18:36:15.088Z,10.58
2024-02-21T18:38:46.300Z,10.62
2024-02-21T18:41:16.405Z,10.65
2024-02-21T18:43:47.950Z,10.71
2024-02-21T18:46:18.035Z,10.62
2024-02-21T18:48:58.995Z,10.57
2024-02-21T18:51:29.837Z,10.39
2024-02-21T18:54:09.674Z,10.51
2024-02-21T18:56:42.789Z,10.41
2024-02-21T18:59:23.696Z,10.50
2024-02-21T19:01:55.769Z,10.57
2024-02-21T19:07:20.309Z,10.58
2024-02-21T19:09:53.477Z,10.52
2024-02-21T19:12:22.456Z,10.58
2024-02-21T19:14:53.382Z,10.51
2024-02-21T19:17:25.367Z,10.52
2024-02-21T19:20:09.233Z,10.46
2024-02-21T19:22:58.038Z,10.44
2024-02-21T19:25:36.276Z,10.40
2024-02-21T19:28:08.224Z,10.35
2024-02-21T19:30:53.523Z,10.39
2024-02-21T19:33:35.581Z,10.33
2024-02-21T19:36:13.509Z,10.43
2024-02-21T19:38:49.058Z,10.40
2024-02-21T19:41:26.867Z,10.36
2024-02-21T19:44:06.568Z,10.35
2024-02-21T19:46:50.411Z,10.42
2024-02-21T19:49:23.889Z,10.49
2024-02-21T19:51:53.766Z,10.37
2024-02-21T19:54:27.410Z,10.40
2024-02-21T19:56:56.873Z,10.39
2024-02-21T19:59:26.451Z,10.36
2024-02-21T20:02:00.119Z,10.38
2024-02-21T20:04:29.500Z,10.40
2024-02-21T20:07:04.253Z,10.46
2024-02-21T20:09:38.157Z,10.37
2024-02-21T20:12:18.530Z,10.31
2024-02-21T20:14:52.746Z,10.33
2024-02-21T20:17:26.674Z,10.28
2024-02-21T20:20:13.083Z,10.23
2024-02-21T20:22:51.826Z,10.22
2024-02-21T20:25:28.768Z,10.27
2024-02-21T20:28:11.614Z,10.32
2024-02-21T20:30:50.929Z,10.27
2024-02-21T20:33:29.017Z,10.28
2024-02-21T20:36:03.204Z,10.26
2024-02-21T20:38:37.912Z,10.27
2024-02-21T20:41:12.847Z,10.29
2024-02-21T20:43:53.581Z,10.22
2024-02-21T20:46:27.295Z,10.23
2024-02-21T20:49:05.280Z,10.24
2024-02-21T20:51:42.337Z,10.20
2024-02-21T20:54:14.432Z,10.20
2024-02-21T20:56:52.503Z,10.23
2024-02-21T20:59:24.741Z,10.26
2024-02-21T21:02:02.620Z,10.21
2024-02-21T21:04:42.312Z,10.18
2024-02-21T21:07:11.823Z,10.12
2024-02-21T21:09:47.531Z,10.14
2024-02-21T21:12:20.361Z,10.13
2024-02-21T21:14:49.885Z,10.13
2024-02-21T21:17:24.010Z,10.13
2024-02-21T21:19:54.636Z,10.23
2024-02-21T21:22:27.211Z,10.17
2024-02-21T21:24:58.821Z,10.17
2024-02-21T21:27:31.481Z,10.22
2024-02-21T21:30:04.639Z,10.17
2024-02-21T21:32:36.627Z,10.21
2024-02-21T21:35:12.913Z,10.22
2024-02-21T21:37:43.784Z,10.22
2024-02-21T21:40:16.631Z,10.23
2024-02-21T21:42:46.736Z,10.20
2024-02-21T21:45:18.759Z,10.23
2024-02-21T21:47:49.549Z,10.21
2024-02-21T21:50:20.826Z,10.22
2024-02-21T21:52:51.738Z,10.23
2024-02-21T21:55:38.606Z,10.26
2024-02-21T21:58:22.753Z,10.23
2024-02-21T22:01:07.767Z,10.25
2024-02-21T22:03:44.632Z,10.33
2024-02-21T22:06:17.333Z,10.41
2024-02-21T22:08:56.034Z,10.39
2024-02-21T22:11:25.390Z,10.36
2024-02-21T22:13:55.921Z,10.36
2024-02-21T22:16:25.481Z,10.40
2024-02-21T22:18:56.873Z,10.40
2024-02-21T22:21:30.836Z,10.41
2024-02-21T22:24:00.162Z,10.49
2024-02-21T22:26:29.770Z,10.47
2024-02-21T22:29:02.169Z,10.50
2024-02-21T22:31:32.985Z,10.50
2024-02-21T22:34:04.576Z,10.52
2024-02-21T22:36:42.555Z,10.48
2024-02-21T22:39:11.475Z,10.46
2024-02-21T22:41:40.534Z,10.48
2024-02-21T22:44:10.941Z,10.50
2024-02-21T22:46:41.383Z,10.49
2024-02-21T22:49:10.952Z,10.53
2024-02-21T22:51:42.714Z,10.60
2024-02-21T22:54:12.315Z,10.61
2024-02-21T22:56:41.088Z,10.64
2024-02-21T22:59:12.021Z,10.70
2024-02-21T23:01:40.941Z,10.72
2024-02-21T23:04:16.004Z,10.72
2024-02-21T23:06:48.612Z,10.73
2024-02-21T23:09:20.930Z,10.78
2024-02-21T23:11:52.434Z,10.81
2024-02-21T23:14:25.997Z,10.79
2024-02-21T23:16:56.304Z,10.75
2024-02-21T23:19:27.371Z,10.86
2024-02-21T23:22:00.880Z,10.87
2024-02-21T23:24:30.540Z,10.76
2024-02-21T23:27:05.365Z,10.75
2024-02-21T23:29:38.388Z,10.83
2024-02-21T23:32:08.321Z,10.87
2024-02-21T23:34:40.318Z,10.92
2024-02-21T23:37:19.503Z,10.82
2024-02-21T23:39:51.666Z,10.86
2024-02-21T23:42:23.651Z,10.85
2024-02-21T23:44:59.273Z,10.89
2024-02-21T23:47:29.667Z,10.92
2024-02-21T23:49:59.889Z,10.94
2024-02-21T23:52:31.023Z,10.87
2024-02-21T23:55:03.600Z,10.92
2024-02-21T23:57:35.417Z,10.90
